Time;durP1;ratioP1;P1;durP2;ratioP2;P2;SDS_P1;SDS_P2;PMS_P1;PMS_P2;Temp;Humidity;BMP_temperature;BMP_pressure;BME280_temperature;BME280_humidity;BME280_pressure;Samples;Min_cycle;Max_cycle;Signal;HPM_P1;HPM_P2
2022/11/20 00:01:56;;;;;;;3.93;1.80;;;;;;;;;;4997167;28;20584;-89
2022/11/20 00:04:22;;;;;;;4.07;2.50;;;;;;;;;;4997155;28;20761;-85
2022/11/20 00:06:47;;;;;;;4.07;1.93;;;;;;;;;;4996673;28;20907;-87
2022/11/20 00:09:13;;;;;;;5.50;2.30;;;;;;;;;;4979807;28;20916;-86
2022/11/20 00:11:39;;;;;;;5.20;3.00;;;;;;;;;;4997144;28;20478;-86
2022/11/20 00:14:05;;;;;;;3.50;1.83;;;;;;;;;;4996952;28;20616;-87
2022/11/20 00:16:33;;;;;;;2.63;1.53;;;;;;;;;;4996742;28;20509;-86
2022/11/20 00:18:58;;;;;;;4.93;2.23;;;;;;;;;;4996814;28;20414;-86
2022/11/20 00:21:25;;;;;;;3.37;2.90;;;;;;;;;;4996457;28;20492;-89
2022/11/20 00:23:52;;;;;;;4.90;2.30;;;;;;;;;;4996742;28;20506;-87
2022/11/20 00:26:19;;;;;;;3.97;3.00;;;;;;;;;;4996547;28;20457;-88
2022/11/20 00:28:49;;;;;;;4.93;2.20;;;;;;;;;;4996683;28;20553;-86
2022/11/20 00:31:15;;;;;;;3.70;3.00;;;;;;;;;;4996732;28;20411;-87
2022/11/20 00:33:42;;;;;;;3.47;2.30;;;;;;;;;;4996547;28;20410;-88
2022/11/20 00:36:09;;;;;;;2.63;1.70;;;;;;;;;;4996885;28;20426;-87
2022/11/20 00:38:35;;;;;;;6.03;2.77;;;;;;;;;;4996395;28;20415;-90
2022/11/20 00:41:02;;;;;;;5.93;3.20;;;;;;;;;;4996234;28;20554;-90
2022/11/20 00:43:29;;;;;;;2.37;1.70;;;;;;;;;;4996416;28;20462;-89
2022/11/20 00:45:58;;;;;;;5.30;2.40;;;;;;;;;;4996487;28;20422;-91
2022/11/20 00:48:24;;;;;;;1.97;1.77;;;;;;;;;;4996191;28;20422;-88
2022/11/20 00:50:50;;;;;;;4.77;1.70;;;;;;;;;;4996001;28;20833;-89
2022/11/20 00:53:16;;;;;;;2.83;1.90;;;;;;;;;;4996751;28;20421;-88
2022/11/20 00:55:42;;;;;;;4.60;2.07;;;;;;;;;;4997790;28;20419;-85
2022/11/20 00:58:08;;;;;;;4.20;2.03;;;;;;;;;;4995103;28;20415;-83
2022/11/20 01:00:34;;;;;;;3.43;2.67;;;;;;;;;;4995092;28;20494;-84
2022/11/20 01:03:00;;;;;;;5.23;2.73;;;;;;;;;;4994938;28;20482;-84
2022/11/20 01:05:26;;;;;;;5.13;2.70;;;;;;;;;;4994602;28;20411;-83
2022/11/20 01:07:52;;;;;;;1.80;1.20;;;;;;;;;;4994877;28;20415;-84
2022/11/20 01:10:18;;;;;;;3.27;1.77;;;;;;;;;;4994716;28;20418;-83
2022/11/20 01:13:36;;;;;;;3.10;2.57;;;;;;;;;;4994797;28;20415;-83
2022/11/20 01:15:30;;;;;;;9.57;3.50;;;;;;;;;;4994494;28;20926;-83
2022/11/20 01:17:55;;;;;;;3.53;2.40;;;;;;;;;;4994666;28;20473;-84
2022/11/20 01:20:21;;;;;;;3.97;1.87;;;;;;;;;;4994311;28;20415;-83
2022/11/20 01:22:47;;;;;;;3.60;2.10;;;;;;;;;;4994518;28;21000;-83
2022/11/20 01:25:13;;;;;;;3.07;2.20;;;;;;;;;;4994554;28;20498;-83
2022/11/20 01:27:39;;;;;;;2.10;1.83;;;;;;;;;;4994547;28;20419;-83
2022/11/20 01:30:05;;;;;;;2.80;2.20;;;;;;;;;;4994487;28;21002;-83
2022/11/20 01:32:31;;;;;;;4.47;2.20;;;;;;;;;;4994414;28;20411;-83
2022/11/20 01:34:57;;;;;;;5.03;2.50;;;;;;;;;;4993990;28;20796;-82
2022/11/20 01:37:23;;;;;;;3.53;1.90;;;;;;;;;;4976857;28;20487;-82
2022/11/20 01:39:49;;;;;;;3.03;2.00;;;;;;;;;;4994112;28;20458;-83
2022/11/20 01:45:00;;;;;;;4.50;1.93;;;;;;;;;;4994543;28;20426;-83
2022/11/20 01:47:29;;;;;;;9.40;2.07;;;;;;;;;;4994205;28;20488;-83
2022/11/20 01:49:58;;;;;;;3.80;2.40;;;;;;;;;;4993760;28;20410;-83
2022/11/20 01:52:28;;;;;;;3.50;1.60;;;;;;;;;;4976553;28;20489;-83
2022/11/20 01:54:56;;;;;;;6.73;2.50;;;;;;;;;;4994122;28;20439;-83
2022/11/20 01:57:23;;;;;;;3.00;1.97;;;;;;;;;;4994019;28;20411;-83
2022/11/20 01:59:53;;;;;;;2.33;1.57;;;;;;;;;;4994026;28;20438;-83
2022/11/20 02:02:20;;;;;;;2.80;2.03;;;;;;;;;;4993987;28;20509;-84
2022/11/20 02:04:46;;;;;;;2.50;1.13;;;;;;;;;;4976620;28;20462;-84
2022/11/20 02:07:13;;;;;;;3.70;2.50;;;;;;;;;;4993988;28;20412;-83
2022/11/20 02:09:39;;;;;;;2.70;1.70;;;;;;;;;;4994082;28;20429;-83
2022/11/20 02:13:42;;;;;;;3.07;1.60;;;;;;;;;;4994039;28;20509;-84
2022/11/20 02:14:51;;;;;;;3.10;1.47;;;;;;;;;;4994005;28;20406;-86
2022/11/20 02:17:17;;;;;;;3.63;2.30;;;;;;;;;;4994232;28;20750;-84
2022/11/20 02:19:43;;;;;;;6.60;3.67;;;;;;;;;;4976528;28;20418;-84
2022/11/20 02:22:14;;;;;;;2.37;1.33;;;;;;;;;;4993176;28;20475;-84
2022/11/20 02:24:42;;;;;;;5.03;2.43;;;;;;;;;;4993840;28;20922;-86
2022/11/20 02:27:08;;;;;;;4.07;2.23;;;;;;;;;;4993896;28;20422;-85
2022/11/20 02:29:42;;;;;;;4.57;2.40;;;;;;;;;;4993970;28;20421;-85
2022/11/20 02:32:19;;;;;;;3.50;1.67;;;;;;;;;;4993837;28;20182;-84
2022/11/20 02:34:44;;;;;;;4.20;2.10;;;;;;;;;;4993645;28;20411;-84
2022/11/20 02:37:10;;;;;;;2.93;1.73;;;;;;;;;;4993891;28;20905;-83
2022/11/20 02:39:36;;;;;;;5.40;2.30;;;;;;;;;;4993655;28;20854;-84
2022/11/20 02:42:02;;;;;;;4.03;1.67;;;;;;;;;;4976316;28;20478;-84
2022/11/20 02:44:28;;;;;;;4.33;2.37;;;;;;;;;;4976373;28;20415;-84
2022/11/20 02:46:57;;;;;;;5.37;1.83;;;;;;;;;;4993801;28;20431;-87
2022/11/20 02:49:23;;;;;;;4.30;2.27;;;;;;;;;;4993734;28;20421;-85
2022/11/20 02:51:49;;;;;;;6.13;2.40;;;;;;;;;;4993257;28;20504;-84
2022/11/20 02:54:15;;;;;;;3.83;1.73;;;;;;;;;;4993535;28;20891;-85
2022/11/20 02:56:41;;;;;;;2.30;1.73;;;;;;;;;;4993553;28;20449;-83
2022/11/20 02:59:07;;;;;;;4.37;2.93;;;;;;;;;;4993672;28;20446;-84
2022/11/20 03:01:33;;;;;;;2.40;1.80;;;;;;;;;;4993550;28;20410;-83
2022/11/20 03:03:58;;;;;;;4.27;2.73;;;;;;;;;;4993707;28;20485;-88
2022/11/20 03:06:24;;;;;;;2.33;1.30;;;;;;;;;;4975869;28;20417;-84
2022/11/20 03:08:50;;;;;;;5.80;2.03;;;;;;;;;;4993605;28;20423;-84
2022/11/20 03:11:16;;;;;;;2.30;1.83;;;;;;;;;;4993616;28;20446;-84
2022/11/20 03:13:42;;;;;;;4.03;2.00;;;;;;;;;;4976375;28;21086;-83
2022/11/20 03:16:13;;;;;;;6.10;2.53;;;;;;;;;;4993503;28;20425;-84
2022/11/20 03:18:39;;;;;;;5.87;3.20;;;;;;;;;;4993575;28;20446;-86
2022/11/20 03:21:06;;;;;;;5.47;3.43;;;;;;;;;;4975640;28;20546;-83
2022/11/20 03:23:32;;;;;;;4.70;2.57;;;;;;;;;;4975923;28;20548;-84
2022/11/20 03:26:18;;;;;;;3.57;2.20;;;;;;;;;;4976037;28;20422;-82
2022/11/20 03:28:49;;;;;;;4.57;2.43;;;;;;;;;;4993308;28;20469;-83
2022/11/20 03:31:16;;;;;;;3.07;1.97;;;;;;;;;;4993408;28;20415;-83
2022/11/20 03:33:42;;;;;;;4.57;2.23;;;;;;;;;;4993849;28;20449;-85
2022/11/20 03:36:10;;;;;;;2.23;1.33;;;;;;;;;;4996705;28;20414;-85
2022/11/20 03:38:36;;;;;;;3.13;2.33;;;;;;;;;;4996844;28;20526;-83
2022/11/20 03:41:03;;;;;;;2.60;1.90;;;;;;;;;;4996731;28;21026;-85
2022/11/20 03:43:29;;;;;;;3.60;1.87;;;;;;;;;;4996647;28;20492;-84
2022/11/20 03:45:55;;;;;;;3.30;1.40;;;;;;;;;;4996837;28;20923;-84
2022/11/20 03:48:21;;;;;;;7.17;3.40;;;;;;;;;;4996868;28;20411;-84
2022/11/20 03:50:47;;;;;;;4.40;2.57;;;;;;;;;;4996319;28;20734;-83
2022/11/20 03:53:13;;;;;;;6.10;2.83;;;;;;;;;;4996434;28;20418;-87
2022/11/20 03:55:39;;;;;;;2.73;1.60;;;;;;;;;;4979028;28;20521;-83
2022/11/20 03:58:05;;;;;;;6.13;2.13;;;;;;;;;;4996555;28;20496;-83
2022/11/20 04:00:31;;;;;;;5.23;2.70;;;;;;;;;;4996398;28;20766;-84
2022/11/20 04:03:01;;;;;;;3.23;2.23;;;;;;;;;;4996360;28;20822;-84
2022/11/20 04:05:27;;;;;;;4.27;2.37;;;;;;;;;;4995947;28;20415;-85
2022/11/20 04:07:53;;;;;;;3.70;1.63;;;;;;;;;;4996162;28;20469;-83
2022/11/20 04:10:19;;;;;;;3.37;1.87;;;;;;;;;;4996329;28;20407;-86
2022/11/20 04:12:45;;;;;;;3.90;2.57;;;;;;;;;;4996180;28;20414;-85
2022/11/20 04:15:11;;;;;;;7.80;2.00;;;;;;;;;;4978650;28;20415;-83
2022/11/20 04:17:37;;;;;;;5.37;2.63;;;;;;;;;;4996179;28;20414;-84
2022/11/20 04:20:03;;;;;;;5.63;2.00;;;;;;;;;;4995793;28;20537;-82
2022/11/20 04:22:29;;;;;;;3.33;2.30;;;;;;;;;;4995997;28;20814;-89
2022/11/20 04:24:55;;;;;;;3.73;2.50;;;;;;;;;;4978693;28;20431;-85
2022/11/20 04:27:21;;;;;;;3.90;1.83;;;;;;;;;;4996103;28;20414;-87
2022/11/20 04:29:47;;;;;;;4.33;2.60;;;;;;;;;;4996391;28;20461;-86
2022/11/20 04:32:13;;;;;;;4.30;1.90;;;;;;;;;;4996197;28;20487;-89
2022/11/20 04:34:38;;;;;;;4.57;2.80;;;;;;;;;;4995739;28;20431;-85
2022/11/20 04:37:05;;;;;;;3.97;1.90;;;;;;;;;;4978638;28;20412;-84
2022/11/20 04:39:30;;;;;;;3.83;1.90;;;;;;;;;;4978340;28;20467;-82
2022/11/20 04:44:41;;;;;;;3.57;3.00;;;;;;;;;;4995567;28;20421;-84
2022/11/20 04:47:08;;;;;;;2.17;1.43;;;;;;;;;;4978399;28;20411;-82
2022/11/20 04:49:34;;;;;;;6.23;3.40;;;;;;;;;;4995415;28;20418;-88
2022/11/20 04:52:00;;;;;;;3.60;2.40;;;;;;;;;;4995799;28;20406;-84
2022/11/20 04:54:26;;;;;;;5.43;2.80;;;;;;;;;;4995683;28;20465;-84
2022/11/20 04:56:52;;;;;;;4.03;1.80;;;;;;;;;;4995666;28;20403;-85
2022/11/20 04:59:18;;;;;;;3.37;2.20;;;;;;;;;;4995690;28;20934;-86
2022/11/20 05:01:43;;;;;;;2.73;1.70;;;;;;;;;;4995580;28;20400;-88
2022/11/20 05:04:09;;;;;;;5.60;2.67;;;;;;;;;;4995564;28;20999;-85
2022/11/20 05:06:35;;;;;;;3.80;2.70;;;;;;;;;;4977703;28;20412;-82
2022/11/20 05:09:02;;;;;;;3.70;2.00;;;;;;;;;;4995199;28;20425;-83
2022/11/20 05:11:31;;;;;;;4.00;2.70;;;;;;;;;;4995006;28;20502;-83
2022/11/20 05:13:58;;;;;;;3.17;2.10;;;;;;;;;;4995001;28;20509;-86
2022/11/20 05:16:25;;;;;;;3.83;2.17;;;;;;;;;;4995064;28;20415;-87
2022/11/20 05:18:51;;;;;;;3.00;2.17;;;;;;;;;;4995085;28;20961;-83
2022/11/20 05:21:18;;;;;;;2.73;2.13;;;;;;;;;;4994577;28;20411;-87
2022/11/20 05:23:44;;;;;;;3.20;2.20;;;;;;;;;;4994794;28;20566;-83
2022/11/20 05:26:17;;;;;;;4.00;2.10;;;;;;;;;;4995004;28;20411;-88
2022/11/20 05:28:43;;;;;;;3.90;2.17;;;;;;;;;;4994971;28;20473;-83
2022/11/20 05:31:14;;;;;;;4.33;2.80;;;;;;;;;;4994836;28;20582;-83
2022/11/20 05:33:40;;;;;;;2.77;1.87;;;;;;;;;;4994679;28;20473;-82
2022/11/20 05:36:06;;;;;;;3.53;2.30;;;;;;;;;;4994237;28;20477;-83
2022/11/20 05:38:33;;;;;;;3.50;1.90;;;;;;;;;;4994752;28;20450;-82
2022/11/20 05:41:06;;;;;;;2.50;1.47;;;;;;;;;;4977014;28;20953;-82
2022/11/20 05:43:35;;;;;;;3.70;2.57;;;;;;;;;;4994365;28;20470;-82
2022/11/20 05:46:02;;;;;;;4.53;2.97;;;;;;;;;;4994580;28;20412;-82
2022/11/20 05:48:28;;;;;;;4.50;2.67;;;;;;;;;;4994751;28;20419;-83
2022/11/20 05:50:53;;;;;;;3.53;2.17;;;;;;;;;;4994516;28;20407;-87
2022/11/20 05:53:19;;;;;;;3.20;1.70;;;;;;;;;;4994570;28;20461;-89
2022/11/20 05:55:45;;;;;;;5.20;2.60;;;;;;;;;;4976867;28;20423;-83
2022/11/20 05:58:11;;;;;;;3.70;2.87;;;;;;;;;;4994205;28;20415;-84
2022/11/20 06:00:37;;;;;;;5.00;2.57;;;;;;;;;;4994590;28;20426;-84
2022/11/20 06:03:03;;;;;;;2.93;1.60;;;;;;;;;;4994351;28;21003;-86
2022/11/20 06:05:29;;;;;;;3.50;2.63;;;;;;;;;;4994072;28;20420;-84
2022/11/20 06:07:55;;;;;;;2.13;1.77;;;;;;;;;;4994353;28;20412;-85
2022/11/20 06:10:21;;;;;;;3.10;2.30;;;;;;;;;;4994218;28;20758;-87
2022/11/20 06:12:47;;;;;;;4.60;2.87;;;;;;;;;;4994163;28;20425;-87
2022/11/20 06:15:13;;;;;;;3.17;2.40;;;;;;;;;;4994058;28;20405;-89
2022/11/20 06:17:39;;;;;;;3.23;1.93;;;;;;;;;;4994060;28;20902;-85
2022/11/20 06:20:05;;;;;;;3.47;2.43;;;;;;;;;;4993660;28;20466;-84
2022/11/20 06:22:32;;;;;;;4.30;2.13;;;;;;;;;;4993820;28;20463;-87
2022/11/20 06:24:58;;;;;;;4.50;2.73;;;;;;;;;;4993833;28;20514;-85
2022/11/20 06:27:24;;;;;;;6.70;2.83;;;;;;;;;;4993972;28;20449;-83
2022/11/20 06:29:50;;;;;;;3.03;2.00;;;;;;;;;;4993882;28;20416;-85
2022/11/20 06:32:16;;;;;;;4.17;2.30;;;;;;;;;;4993809;28;20407;-84
2022/11/20 06:34:41;;;;;;;4.47;1.60;;;;;;;;;;4993498;28;20424;-85
2022/11/20 06:37:07;;;;;;;4.73;3.03;;;;;;;;;;4993814;28;20403;-85
2022/11/20 06:39:33;;;;;;;6.20;2.30;;;;;;;;;;4993680;28;20974;-84
2022/11/20 06:41:59;;;;;;;2.60;1.90;;;;;;;;;;4976298;28;20571;-84
2022/11/20 06:44:25;;;;;;;6.23;2.60;;;;;;;;;;4976279;28;20788;-84
2022/11/20 06:46:51;;;;;;;4.00;2.20;;;;;;;;;;4993761;28;20426;-86
2022/11/20 06:49:17;;;;;;;5.43;1.73;;;;;;;;;;4993442;28;20415;-84
2022/11/20 06:51:43;;;;;;;2.60;1.63;;;;;;;;;;4993819;28;20415;-84
2022/11/20 06:54:09;;;;;;;2.40;1.27;;;;;;;;;;4993927;28;20409;-87
2022/11/20 06:56:34;;;;;;;3.10;2.40;;;;;;;;;;4993776;28;20424;-87
2022/11/20 06:59:04;;;;;;;5.00;2.60;;;;;;;;;;4994114;28;20416;-86
2022/11/20 07:01:29;;;;;;;4.10;2.53;;;;;;;;;;4993998;28;20415;-88
2022/11/20 07:03:55;;;;;;;3.17;2.37;;;;;;;;;;4993736;28;20817;-85
2022/11/20 07:06:21;;;;;;;6.90;2.83;;;;;;;;;;4993840;28;20407;-87
2022/11/20 07:08:47;;;;;;;3.33;2.97;;;;;;;;;;4996419;28;20417;-84
2022/11/20 07:11:13;;;;;;;4.70;2.10;;;;;;;;;;4997486;28;20807;-86
2022/11/20 07:13:39;;;;;;;7.83;3.80;;;;;;;;;;4980074;28;20915;-85
2022/11/20 07:16:07;;;;;;;2.53;2.10;;;;;;;;;;4997804;28;20421;-86
2022/11/20 07:18:33;;;;;;;2.90;1.70;;;;;;;;;;4997382;28;20411;-87
2022/11/20 07:21:03;;;;;;;2.13;1.93;;;;;;;;;;4979594;28;20885;-87
2022/11/20 07:23:29;;;;;;;2.83;1.90;;;;;;;;;;4997304;28;20556;-86
2022/11/20 07:25:54;;;;;;;5.20;3.27;;;;;;;;;;4997438;28;20947;-89
2022/11/20 07:28:20;;;;;;;6.33;2.80;;;;;;;;;;4997358;28;20446;-87
2022/11/20 07:30:50;;;;;;;4.37;2.93;;;;;;;;;;4997334;28;20496;-83
2022/11/20 07:33:16;;;;;;;7.70;3.73;;;;;;;;;;4996999;28;20414;-85
2022/11/20 07:35:41;;;;;;;4.20;2.90;;;;;;;;;;4996625;28;20942;-87
2022/11/20 07:38:08;;;;;;;3.50;2.20;;;;;;;;;;4979368;28;20427;-85
2022/11/20 07:40:33;;;;;;;5.60;3.17;;;;;;;;;;4996691;28;20824;-86
2022/11/20 07:42:59;;;;;;;5.40;3.10;;;;;;;;;;4996777;28;20471;-85
2022/11/20 07:45:25;;;;;;;4.67;2.70;;;;;;;;;;4996780;28;20423;-84
2022/11/20 07:47:51;;;;;;;5.70;3.17;;;;;;;;;;4996892;28;20446;-86
2022/11/20 07:50:18;;;;;;;5.30;3.57;;;;;;;;;;4996406;28;20461;-87
2022/11/20 07:52:44;;;;;;;4.70;2.97;;;;;;;;;;4996727;28;20829;-85
2022/11/20 07:55:10;;;;;;;8.83;3.20;;;;;;;;;;4996443;28;20407;-84
2022/11/20 07:57:36;;;;;;;4.93;2.97;;;;;;;;;;4996498;28;20415;-84
2022/11/20 08:00:02;;;;;;;4.40;3.43;;;;;;;;;;4996496;28;20492;-84
2022/11/20 08:02:28;;;;;;;4.23;2.50;;;;;;;;;;4996368;28;20493;-85
2022/11/20 08:04:54;;;;;;;3.80;3.00;;;;;;;;;;4996134;28;20404;-85
2022/11/20 08:07:20;;;;;;;3.70;2.40;;;;;;;;;;4996130;28;20430;-85
2022/11/20 08:09:46;;;;;;;4.17;2.73;;;;;;;;;;4996449;28;20403;-85
2022/11/20 08:15:05;;;;;;;3.80;2.33;;;;;;;;;;4996626;28;20410;-85
2022/11/20 08:17:31;;;;;;;6.00;3.27;;;;;;;;;;4996316;28;20418;-85
2022/11/20 08:19:57;;;;;;;6.00;4.10;;;;;;;;;;4995094;28;20415;-85
2022/11/20 08:22:23;;;;;;;6.30;4.00;;;;;;;;;;4996181;28;20537;-84
2022/11/20 08:24:49;;;;;;;4.90;3.20;;;;;;;;;;4996160;28;20772;-83
2022/11/20 08:27:15;;;;;;;5.43;3.80;;;;;;;;;;4996201;28;20854;-85
2022/11/20 08:29:41;;;;;;;6.57;4.07;;;;;;;;;;4978983;28;20461;-84
2022/11/20 08:32:07;;;;;;;8.27;5.00;;;;;;;;;;4978740;28;20427;-83
2022/11/20 08:34:33;;;;;;;9.90;6.07;;;;;;;;;;4996247;28;20422;-83
2022/11/20 08:36:59;;;;;;;7.10;5.07;;;;;;;;;;4996331;28;20760;-83
2022/11/20 08:39:25;;;;;;;10.10;6.10;;;;;;;;;;4978549;28;20503;-83
2022/11/20 08:41:51;;;;;;;7.73;5.50;;;;;;;;;;4996005;28;20505;-84
2022/11/20 08:44:17;;;;;;;9.80;6.80;;;;;;;;;;4978856;28;20422;-82
2022/11/20 08:46:43;;;;;;;7.90;5.60;;;2.40;99.90;;;;;;4996156;28;20491;-83
2022/11/20 08:49:11;;;;;;;8.17;5.97;;;2.50;99.90;;;;;;4995511;28;20422;-83
2022/11/20 08:51:37;;;;;;;8.73;4.87;;;2.50;99.90;;;;;;4995779;28;20423;-83
2022/11/20 08:54:03;;;;;;;7.80;5.07;;;;;;;;;;4995694;28;20422;-84
2022/11/20 08:56:29;;;;;;;7.70;4.90;;;;;;;;;;4978265;28;20423;-82
2022/11/20 08:58:55;;;;;;;7.40;5.07;;;;;;;;;;4995991;28;20418;-82
2022/11/20 09:01:23;;;;;;;4.97;4.40;;;;;;;;;;4978591;28;20791;-84
2022/11/20 09:03:49;;;;;;;9.17;6.07;;;;;;;;;;4995524;28;20502;-83
2022/11/20 09:06:15;;;;;;;7.20;4.37;;;;;;;;;;4978251;28;20515;-85
2022/11/20 09:08:41;;;;;;;6.40;3.80;;;;;;;;;;4978131;28;20420;-84
2022/11/20 09:11:07;;;;;;;5.87;3.17;;;;;;;;;;4995961;28;21004;-84
2022/11/20 09:13:34;;;;;;;4.37;2.30;;;;;;;;;;4995671;28;20511;-83
2022/11/20 09:16:02;;;;;;;5.20;2.57;;;;;;;;;;4995442;28;20410;-84
2022/11/20 09:18:28;;;;;;;3.37;1.57;;;;;;;;;;4995209;28;20781;-83
2022/11/20 09:21:01;;;;;;;2.77;1.53;;;;;;;;;;4994738;28;20405;-84
2022/11/20 09:23:31;;;;;;;4.80;1.77;;;;;;;;;;4977305;28;20482;-85
2022/11/20 09:25:59;;;;;;;2.67;1.70;;;;;;;;;;4994906;28;20407;-84
2022/11/20 09:28:25;;;;;;;1.30;1.07;;;;;;;;;;4977456;28;20416;-84
2022/11/20 09:30:51;;;;;;;1.80;0.83;;;;;;;;;;4994434;28;20411;-83
2022/11/20 09:33:17;;;;;;;1.97;1.20;;;;;;;;;;4994522;28;20426;-89
2022/11/20 09:35:44;;;;;;;2.27;0.83;;;;;;;;;;4994593;28;20482;-84
2022/11/20 09:38:11;;;;;;;2.40;1.60;;;;;;;;;;4994845;28;20460;-87
2022/11/20 09:40:39;;;;;;;1.40;0.97;;;;;;;;;;4994886;28;20451;-88
2022/11/20 09:43:13;;;;;;;2.00;1.07;;;;;;;;;;4995167;28;20480;-89
2022/11/20 09:45:50;;;;;;;2.50;1.80;;;;;;;;;;4995242;28;20448;-88
2022/11/20 09:48:35;;;;;;;4.10;1.40;;;;;;;;;;4995150;28;20502;-88
2022/11/20 09:51:19;;;;;;;1.97;1.30;;;;;;;;;;4995181;28;20923;-87
2022/11/20 09:54:04;;;;;;;2.27;0.80;;;;;;;;;;4977302;28;20434;-91
2022/11/20 09:56:30;;;;;;;3.03;1.33;;;;;;;;;;4995067;28;20423;-88
2022/11/20 09:59:00;;;;;;;3.83;1.33;;;;;;;;;;4995225;28;20498;-88
2022/11/20 10:01:32;;;;;;;1.40;0.90;;;;;;;;;;4994512;28;20444;-85
2022/11/20 10:04:04;;;;;;;4.73;1.47;;;;;;;;;;4994614;28;20517;-84
2022/11/20 10:06:30;;;;;;;1.27;0.70;;;;;;;;;;4977610;28;20417;-87
2022/11/20 10:09:02;;;;;;;1.37;1.07;;;;;;;;;;4995116;28;20422;-84
2022/11/20 10:11:35;;;;;;;2.77;2.07;;;;;;;;;;4977622;28;20430;-88
2022/11/20 10:14:19;;;;;;;2.70;1.47;;;;;;;;;;4994608;28;20415;-88
2022/11/20 10:16:51;;;;;;;3.10;1.50;;;;;;;;;;4994647;28;20414;-87
2022/11/20 10:19:30;;;;;;;4.10;2.33;;;;;;;;;;4976944;28;20422;-88
2022/11/20 10:22:05;;;;;;;1.90;0.87;;;;;;;;;;4994416;28;20406;-87
2022/11/20 10:24:47;;;;;;;1.57;1.03;;;;;;;;;;4994408;28;20488;-89
2022/11/20 10:27:33;;;;;;;2.40;1.70;;;;;;;;;;4977278;28;20425;-87
2022/11/20 10:30:01;;;;;;;4.80;2.07;;;;;;;;;;4994352;28;20418;-89
2022/11/20 10:32:30;;;;;;;2.80;1.40;;;;;;;;;;4995035;28;20411;-88
2022/11/20 10:35:10;;;;;;;3.47;1.47;;;;;;;;;;4998431;28;20794;-84
2022/11/20 10:37:37;;;;;;;2.03;1.33;;;;;;;;;;4994181;28;20447;-84
2022/11/20 10:40:21;;;;;;;3.57;1.47;;;;;;;;;;4993806;28;20466;-83
2022/11/20 10:42:51;;;;;;;2.77;1.03;;;;;;;;;;4994367;28;20480;-83
2022/11/20 10:45:27;;;;;;;2.37;1.50;;;;;;;;;;4997795;28;20786;-84
2022/11/20 10:48:13;;;;;;;2.73;2.00;;;;;;;;;;4980200;28;20430;-83
2022/11/20 10:50:44;;;;;;;2.20;2.00;;;;;;;;;;4997360;28;20480;-84
2022/11/20 10:53:36;;;;;;;2.50;1.40;;;;;;;;;;4997478;28;20403;-84
2022/11/20 10:56:14;;;;;;;3.50;1.23;;;;;;;;;;4960707;28;20416;-83
2022/11/20 10:58:45;;;;;;;3.10;2.20;;;;;;;;;;4997441;28;20415;-84
2022/11/20 11:01:18;;;;;;;2.00;1.00;;;;;;;;;;4997357;28;20396;-85
2022/11/20 11:03:45;;;;;;;2.77;1.50;;;;;;;;;;4979464;28;20473;-84
2022/11/20 11:06:15;;;;;;;1.60;1.13;;;;;;;;;;4997307;28;20836;-83
2022/11/20 11:08:41;;;;;;;1.60;0.80;;;;;;;;;;4979844;28;20410;-84
2022/11/20 11:11:27;;;;;;;1.50;1.00;;;;;;;;;;4979661;28;20426;-84
2022/11/20 11:13:54;;;;;;;2.20;0.93;;;;;;;;;;4979701;28;20424;-84
2022/11/20 11:16:21;;;;;;;2.23;1.53;;;;;;;;;;4997088;28;20450;-84
2022/11/20 11:18:47;;;;;;;2.43;1.23;;;;;;;;;;4996687;28;20413;-84
2022/11/20 11:21:13;;;;;;;2.30;1.50;;;;;;;;;;4996939;28;20440;-84
2022/11/20 11:23:40;;;;;;;1.30;0.70;;;;;;;;;;4996889;28;20566;-84
2022/11/20 11:26:07;;;;;;;1.90;1.30;;;;;;;;;;4997018;28;20473;-84
2022/11/20 11:28:33;;;;;;;1.83;0.90;;;;;;;;;;4996853;28;20772;-83
2022/11/20 11:30:59;;;;;;;2.10;1.30;;;;;;;;;;4996727;28;20558;-84
2022/11/20 11:33:26;;;;;;;2.70;1.20;;;;;;;;;;4996395;28;20499;-83
2022/11/20 11:35:53;;;;;;;1.80;0.80;;;;;;;;;;4996755;28;20420;-85
2022/11/20 11:38:40;;;;;;;1.57;1.17;;;;;;;;;;4996718;28;20935;-84
2022/11/20 11:41:07;;;;;;;2.40;1.63;;;;;;;;;;4996436;28;20479;-84
2022/11/20 11:46:29;;;;;;;2.17;1.30;;;;;;;;;;4996786;28;20398;-84
2022/11/20 11:48:58;;;;;;;1.53;1.20;;;;;;;;;;4978688;28;20420;-82
2022/11/20 11:51:30;;;;;;;2.03;1.20;;;;;;;;;;4996970;28;20408;-86
2022/11/20 11:53:57;;;;;;;1.70;1.03;;;;;;;;;;4996029;28;20416;-87
2022/11/20 11:56:23;;;;;;;3.07;1.70;;;;;;;;;;4996832;28;20810;-87
2022/11/20 11:58:52;;;;;;;1.93;1.60;;;;;;;;;;4997575;28;20508;-88
2022/11/20 12:01:23;;;;;;;3.43;1.23;;;;;;;;;;4979790;28;20424;-87
2022/11/20 12:04:00;;;;;;;2.03;1.27;;;;;;;;;;4979196;28;20529;-87
2022/11/20 12:06:28;;;;;;;2.97;1.00;;;;;;;;;;4996763;28;20404;-89
2022/11/20 12:08:58;;;;;;;2.00;0.97;;;;;;;;;;4996836;28;20419;-88
2022/11/20 12:11:30;;;;;;;1.83;1.23;;;;;;;;;;4996802;28;20407;-87
2022/11/20 12:14:04;;;;;;;1.77;1.13;;;;;;;;;;4996648;28;20447;-85
2022/11/20 12:16:30;;;;;;;2.10;1.77;;;;;;;;;;4996517;28;20400;-87
2022/11/20 12:18:57;;;;;;;2.77;1.80;;;;;;;;;;4996031;28;20500;-87
2022/11/20 12:21:25;;;;;;;3.00;1.40;;;;;;;;;;4996271;28;20424;-84
2022/11/20 12:23:54;;;;;;;4.00;1.07;;;;;;;;;;4995728;28;20502;-83
2022/11/20 12:26:32;;;;;;;1.50;1.00;;;;;;;;;;4995894;28;20435;-87
2022/11/20 12:29:06;;;;;;;2.27;1.40;;;;;;;;;;4996313;28;20413;-87
2022/11/20 12:31:44;;;;;;;1.43;0.90;;;;;;;;;;4996494;28;20412;-88
2022/11/20 12:34:29;;;;;;;2.07;1.33;;;;;;;;;;4978698;28;20839;-87
2022/11/20 12:37:11;;;;;;;1.20;1.07;;;;;;;;;;4979230;28;20455;-86
2022/11/20 12:39:42;;;;;;;1.77;1.10;;;;;;;;;;4978791;28;20463;-89
2022/11/20 12:45:10;;;;;;;1.10;0.67;;;;;;;;;;4996374;28;20461;-87
2022/11/20 12:47:45;;;;;;;1.23;0.83;;;;;;;;;;4978670;28;20412;-87
2022/11/20 12:50:11;;;;;;;1.10;0.53;;;;;;;;;;4995836;28;20410;-87
2022/11/20 12:52:46;;;;;;;1.27;0.50;;;;;;;;;;4978704;28;20515;-88
2022/11/20 12:55:33;;;;;;;0.97;0.60;;;;;;;;;;4995933;28;20232;-88
2022/11/20 12:58:18;;;;;;;0.97;0.50;;;;;;;;;;4978061;28;20939;-84
2022/11/20 13:00:49;;;;;;;1.83;0.73;;;;;;;;;;4977918;28;20419;-87
2022/11/20 13:03:21;;;;;;;0.83;0.43;;;;;;;;;;4994733;28;21069;-83
2022/11/20 13:05:47;;;;;;;2.10;0.60;;;;;;;;;;4994863;28;20751;-84
2022/11/20 13:08:19;;;;;;;1.23;0.70;;;;;;;;;;4994915;28;20517;-83
2022/11/20 13:11:04;;;;;;;1.93;0.53;;;;;;;;;;4977482;28;20182;-84
2022/11/20 13:13:34;;;;;;;1.13;0.70;;;;;;;;;;4994855;28;20446;-84
2022/11/20 13:16:02;;;;;;;0.70;0.70;;;;;;;;;;4994865;28;20413;-84
2022/11/20 13:18:34;;;;;;;1.40;0.50;;;;;;;;;;4995086;28;20495;-84
2022/11/20 13:21:00;;;;;;;1.80;0.80;;;;;;;;;;4995135;28;20967;-86
2022/11/20 13:23:29;;;;;;;1.70;1.23;;;;;;;;;;4977472;28;20482;-85
2022/11/20 13:26:04;;;;;;;1.00;0.70;;;;;;;;;;4977591;28;20477;-86
2022/11/20 13:28:30;;;;;;;1.73;0.87;;;;;;;;;;4995144;28;20423;-88
2022/11/20 13:30:57;;;;;;;1.10;0.60;;;;;;;;;;4977546;28;20809;-85
2022/11/20 13:33:29;;;;;;;1.27;0.80;;;;;;;;;;4994257;28;20430;-86
2022/11/20 13:35:56;;;;;;;1.47;0.80;;;;;;;;;;5000518;28;20542;-85
2022/11/20 13:38:22;;;;;;;1.53;0.40;;;;;;;;;;4994448;28;20407;-85
2022/11/20 13:40:58;;;;;;;5.33;0.70;;;;;;;;;;4994304;28;20463;-84
2022/11/20 13:43:27;;;;;;;1.53;0.83;;;;;;;;;;4994474;28;20478;-84
2022/11/20 13:46:04;;;;;;;1.47;0.80;;;;;;;;;;4994367;28;20463;-85
2022/11/20 13:48:41;;;;;;;0.90;0.40;;;;;;;;;;4994016;28;20423;-85
2022/11/20 13:51:26;;;;;;;1.47;0.93;;;;;;;;;;4994258;28;20469;-84
2022/11/20 13:53:52;;;;;;;1.33;0.83;;;;;;;;;;4977384;28;20424;-87
2022/11/20 13:56:25;;;;;;;1.10;0.90;;;;;;;;;;4995111;28;20421;-86
2022/11/20 13:58:56;;;;;;;3.30;1.00;;;;;;;;;;4978232;28;20445;-85
2022/11/20 14:01:23;;;;;;;1.93;0.50;;;;;;;;;;4996406;28;20418;-87
2022/11/20 14:03:50;;;;;;;1.90;0.60;;;;;;;;;;4994413;28;20474;-86
2022/11/20 14:06:19;;;;;;;4.17;1.80;;;;;;;;;;4994407;28;20459;-88
2022/11/20 14:08:46;;;;;;;1.80;1.07;;;;;;;;;;4993980;28;20935;-85
2022/11/20 14:11:24;;;;;;;1.47;0.40;;;;;;;;;;4994099;28;20787;-87
2022/11/20 14:13:53;;;;;;;2.67;1.00;;;;;;;;;;4976993;28;20566;-87
2022/11/20 14:16:22;;;;;;;2.30;0.93;;;;;;;;;;4994243;28;20437;-86
2022/11/20 14:18:49;;;;;;;2.13;0.77;;;;;;;;;;4993210;28;20418;-85
2022/11/20 14:21:29;;;;;;;2.23;1.20;;;;;;;;;;4994379;28;20418;-87
2022/11/20 14:24:13;;;;;;;3.27;1.60;;;;;;;;;;4994514;28;20474;-87
2022/11/20 14:26:43;;;;;;;1.57;0.93;;;;;;;;;;4993983;28;20404;-85
2022/11/20 14:29:20;;;;;;;1.40;0.90;;;;;;;;;;4993756;28;20411;-84
2022/11/20 14:31:47;;;;;;;2.03;1.73;;;;;;;;;;4993848;28;20410;-86
2022/11/20 14:34:17;;;;;;;1.97;1.37;;;;;;;;;;4975936;28;20445;-88
2022/11/20 14:36:44;;;;;;;2.20;2.00;;;;;;;;;;4994017;28;20450;-88
2022/11/20 14:39:12;;;;;;;2.97;1.40;;;;;;;;;;4993973;28;20409;-87
2022/11/20 14:41:37;;;;;;;2.67;1.83;;;;;;;;;;4976363;28;20432;-87
2022/11/20 14:44:04;;;;;;;2.50;1.87;;;;;;;;;;4976938;28;20481;-88
2022/11/20 14:46:31;;;;;;;2.20;1.17;;;;;;;;;;4994028;28;20412;-88
2022/11/20 14:48:57;;;;;;;2.50;1.30;;;;;;;;;;4993621;28;20425;-89
2022/11/20 14:51:28;;;;;;;2.47;0.70;;;;;;;;;;4993589;28;20411;-87
2022/11/20 14:53:54;;;;;;;2.90;1.03;;;;;;;;;;4994473;28;20488;-87
2022/11/20 14:56:24;;;;;;;2.40;1.17;;;;;;;;;;4976691;28;20473;-87
2022/11/20 14:58:57;;;;;;;4.60;1.57;;;;;;;;;;4993776;28;20787;-87
2022/11/20 15:01:27;;;;;;;2.13;1.70;;;;;;;;;;4993918;28;20419;-89
2022/11/20 15:03:59;;;;;;;1.70;0.93;;;;;;;;;;4976064;28;20475;-86
2022/11/20 15:06:26;;;;;;;1.60;1.20;;;;;;;;;;4993944;28;20914;-87